createdAt,value
2022-12-17T00:03:03.123Z,98534.99
2022-12-17T00:08:23.898Z,98527.50
2022-12-17T00:13:44.437Z,98544.30
2022-12-17T00:19:04.955Z,98553.89
2022-12-17T00:24:25.358Z,98556.71
2022-12-17T00:29:45.932Z,98558.04
2022-12-17T00:35:06.713Z,98562.45
2022-12-17T00:40:28.181Z,98565.14
2022-12-17T00:45:48.752Z,98560.05
2022-12-17T00:51:09.424Z,98562.73
2022-12-17T00:56:30.374Z,98564.91
2022-12-17T01:01:51.184Z,98573.77
2022-12-17T01:07:12.643Z,98577.59
2022-12-17T01:12:33.234Z,98580.08
2022-12-17T01:17:53.736Z,98595.80
2022-12-17T01:23:16.863Z,98604.34
2022-12-17T01:28:43.078Z,98608.45
2022-12-17T01:34:03.559Z,98616.02
2022-12-17T01:39:24.115Z,98609.20
2022-12-17T01:45:03.228Z,98606.75
2022-12-17T01:50:24.205Z,98614.39
2022-12-17T01:55:44.778Z,98606.45
2022-12-17T02:01:05.568Z,98596.45
2022-12-17T02:06:45.527Z,98599.73
2022-12-17T02:12:31.970Z,98598.45
2022-12-17T02:18:00.500Z,98587.70
2022-12-17T02:23:47.145Z,98573.81
2022-12-17T02:29:10.806Z,98594.77
2022-12-17T02:34:31.434Z,98582.89
2022-12-17T02:39:52.205Z,98573.83
2022-12-17T02:45:17.507Z,98580.18
2022-12-17T02:50:38.134Z,98580.28
2022-12-17T02:55:58.730Z,98606.77
2022-12-17T03:01:21.030Z,98628.05
2022-12-17T03:06:41.750Z,98659.09
2022-12-17T03:12:02.406Z,98677.23
2022-12-17T03:17:22.898Z,98676.80
2022-12-17T03:22:43.332Z,98683.96
2022-12-17T03:28:03.880Z,98697.95
2022-12-17T03:33:27.400Z,98712.59
2022-12-17T03:38:47.930Z,98717.15
2022-12-17T03:44:08.420Z,98715.85
2022-12-17T03:49:48.756Z,98731.20
2022-12-17T03:55:09.057Z,98729.15
2022-12-17T04:00:30.312Z,98705.30
2022-12-17T04:05:50.688Z,98702.52
2022-12-17T04:11:11.259Z,98689.23
2022-12-17T04:16:31.652Z,98695.42
2022-12-17T04:21:52.136Z,98695.28
2022-12-17T04:27:12.601Z,98682.66
2022-12-17T04:32:35.369Z,98684.73
2022-12-17T04:37:56.354Z,98697.00
2022-12-17T04:43:25.014Z,98708.22
2022-12-17T04:48:45.591Z,98711.38
2022-12-17T04:54:06.236Z,98727.38
2022-12-17T04:59:26.774Z,98737.42
2022-12-17T05:04:47.491Z,98738.79
2022-12-17T05:10:07.950Z,98745.20
2022-12-17T05:15:28.532Z,98758.78
2022-12-17T05:20:49.089Z,98773.33
2022-12-17T05:26:21.842Z,98781.36
2022-12-17T05:31:42.251Z,98770.91
2022-12-17T05:37:02.626Z,98780.13
2022-12-17T05:42:23.128Z,98764.44
2022-12-17T05:47:43.838Z,98778.21
2022-12-17T05:53:04.402Z,98791.27
2022-12-17T05:58:28.868Z,98817.14
2022-12-17T06:03:49.631Z,98813.08
2022-12-17T06:09:10.441Z,98828.31
2022-12-17T06:14:31.031Z,98850.76
2022-12-17T06:19:51.403Z,98864.79
2022-12-17T06:25:11.915Z,98869.81
2022-12-17T06:30:32.580Z,98855.47
2022-12-17T06:35:53.002Z,98859.89
2022-12-17T06:41:13.471Z,98868.08
2022-12-17T06:46:34.242Z,98883.85
2022-12-17T06:51:54.887Z,98899.79
2022-12-17T06:57:15.581Z,98899.52
2022-12-17T07:02:49.881Z,98906.54
2022-12-17T07:08:18.272Z,98923.09
2022-12-17T07:13:39.233Z,98932.27
2022-12-17T07:19:01.076Z,98939.09
2022-12-17T07:24:21.744Z,98952.80
2022-12-17T07:29:42.244Z,98955.11
2022-12-17T07:35:02.908Z,98961.87
2022-12-17T07:40:23.924Z,98970.83
2022-12-17T07:45:45.082Z,98980.77
2022-12-17T07:51:09.718Z,98991.72
2022-12-17T07:56:30.155Z,98994.60
2022-12-17T08:01:50.908Z,99012.86
2022-12-17T08:07:14.151Z,99017.39
2022-12-17T08:12:35.205Z,99017.80
2022-12-17T08:17:55.702Z,99019.84
2022-12-17T08:23:21.491Z,99022.45
2022-12-17T08:28:52.604Z,99029.52
2022-12-17T08:34:13.327Z,99030.17
2022-12-17T08:39:33.715Z,99032.67
2022-12-17T08:44:54.185Z,99035.95
2022-12-17T08:50:14.780Z,99034.35
2022-12-17T08:55:35.306Z,99042.48
2022-12-17T09:00:55.997Z,99048.52
2022-12-17T09:06:18.027Z,99057.25
2022-12-17T09:11:38.662Z,99059.27
2022-12-17T09:16:59.203Z,99060.73
2022-12-17T09:22:20.028Z,99062.65
2022-12-17T09:27:40.651Z,99074.92
2022-12-17T09:33:01.162Z,99076.23
2022-12-17T09:38:21.796Z,99075.55
2022-12-17T09:43:59.269Z,99080.76
2022-12-17T09:49:23.862Z,99097.31
2022-12-17T09:54:48.363Z,99099.32
2022-12-17T10:00:08.679Z,99101.77
2022-12-17T10:05:39.464Z,99109.66
2022-12-17T10:11:03.941Z,99108.73
2022-12-17T10:17:11.692Z,99105.58
2022-12-17T10:22:37.929Z,99105.70
2022-12-17T10:28:00.188Z,99112.56
2022-12-17T10:33:25.756Z,99127.90
2022-12-17T10:38:48.896Z,99125.52
2022-12-17T10:44:09.694Z,99128.29
2022-12-17T10:49:36.194Z,99139.94
2022-12-17T10:54:57.009Z,99135.09
2022-12-17T11:00:18.041Z,99132.75
2022-12-17T11:05:48.420Z,99153.23
2022-12-17T11:11:09.657Z,99156.84
2022-12-17T11:16:46.008Z,99155.21
2022-12-17T11:22:10.518Z,99150.95
2022-12-17T11:27:37.192Z,99156.95
2022-12-17T11:33:17.548Z,99160.01
2022-12-17T11:38:41.011Z,99171.20
2022-12-17T11:44:01.614Z,99180.49
2022-12-17T11:49:32.158Z,99190.05
2022-12-17T11:55:18.130Z,99196.84
2022-12-17T12:00:41.841Z,99199.55
2022-12-17T12:06:13.728Z,99203.95
2022-12-17T12:12:05.220Z,99215.27
2022-12-17T12:17:56.915Z,99220.74
2022-12-17T12:23:42.778Z,99216.21
2022-12-17T12:29:29.645Z,99224.85
2022-12-17T12:34:55.454Z,99236.69
2022-12-17T12:40:40.143Z,99251.98
2022-12-17T12:46:08.839Z,99256.44
2022-12-17T12:51:37.955Z,99266.12
2022-12-17T12:56:58.224Z,99274.14
2022-12-17T13:02:18.950Z,99277.11
2022-12-17T13:07:30.905Z,99287.86
2022-12-17T13:12:42.286Z,99292.20
2022-12-17T13:18:00.239Z,99297.95
2022-12-17T13:23:29.161Z,99299.05
2022-12-17T13:28:40.166Z,99306.42
2022-12-17T13:34:00.624Z,99314.84
2022-12-17T13:39:15.020Z,99315.15
2022-12-17T13:44:30.618Z,99325.21
2022-12-17T13:49:32.740Z,99335.11
2022-12-17T13:54:34.826Z,99342.84
2022-12-17T13:59:36.712Z,99355.41
2022-12-17T14:04:38.680Z,99360.08
2022-12-17T14:09:44.026Z,99363.55
2022-12-17T14:14:52.727Z,99372.50
2022-12-17T14:20:02.802Z,99384.48
2022-12-17T14:25:13.340Z,99397.80
2022-12-17T14:30:24.915Z,99408.84
2022-12-17T14:35:30.413Z,99413.88
2022-12-17T14:40:32.318Z,99417.27
2022-12-17T14:45:54.173Z,99420.18
2022-12-17T14:50:56.511Z,99432.60
2022-12-17T14:55:59.356Z,99434.42
2022-12-17T15:01:09.094Z,99439.23
2022-12-17T15:06:16.575Z,99451.31
2022-12-17T15:11:21.947Z,99453.90
2022-12-17T15:16:24.332Z,99462.80
2022-12-17T15:21:27.100Z,99469.80
2022-12-17T15:26:28.918Z,99481.42
2022-12-17T15:31:35.255Z,99492.42
2022-12-17T15:36:37.725Z,99497.56
2022-12-17T15:41:58.326Z,99501.80
2022-12-17T15:47:00.180Z,99509.25
2022-12-17T15:52:02.029Z,99517.92
2022-12-17T15:57:04.024Z,99528.77
2022-12-17T16:02:06.702Z,99538.35
2022-12-17T16:07:08.941Z,99546.24
2022-12-17T16:12:10.659Z,99546.98
2022-12-17T16:17:13.169Z,99553.91
2022-12-17T16:22:14.924Z,99554.02
2022-12-17T16:27:18.198Z,99561.65
2022-12-17T16:32:20.050Z,99568.00
2022-12-17T16:37:21.830Z,99575.75
2022-12-17T16:42:23.620Z,99577.55
2022-12-17T16:47:26.700Z,99587.61
2022-12-17T16:52:28.536Z,99591.22
2022-12-17T16:57:30.363Z,99603.61
2022-12-17T17:02:32.638Z,99600.19
2022-12-17T17:07:34.672Z,99606.30
2022-12-17T17:12:36.580Z,99614.38
2022-12-17T17:17:54.158Z,99627.73
2022-12-17T17:22:57.934Z,99631.08
2022-12-17T17:27:59.694Z,99638.59
2022-12-17T17:33:01.460Z,99645.27
2022-12-17T17:38:03.289Z,99655.81
2022-12-17T17:43:05.079Z,99656.73
2022-12-17T17:48:07.056Z,99668.36
2022-12-17T17:53:08.912Z,99676.52
2022-12-17T17:58:10.731Z,99687.18
2022-12-17T18:03:12.650Z,99692.13
2022-12-17T18:08:14.513Z,99708.77
2022-12-17T18:13:35.092Z,99716.70
2022-12-17T18:18:38.348Z,99723.04
2022-12-17T18:23:41.104Z,99730.54
2022-12-17T18:28:44.444Z,99737.38
2022-12-17T18:33:48.923Z,99744.33
2022-12-17T18:38:58.666Z,99746.79
2022-12-17T18:44:03.623Z,99754.99
2022-12-17T18:49:09.187Z,99758.13
2022-12-17T18:54:19.363Z,99763.59
2022-12-17T18:59:28.543Z,99771.36
2022-12-17T19:04:33.046Z,99774.48
2022-12-17T19:09:35.809Z,99784.19
2022-12-17T19:14:37.825Z,99793.86
2022-12-17T19:19:39.564Z,99799.30
2022-12-17T19:24:41.330Z,99806.81
2022-12-17T19:29:48.960Z,99813.58
2022-12-17T19:34:51.632Z,99822.11
2022-12-17T19:39:53.829Z,99820.52
2022-12-17T19:44:56.960Z,99826.09
2022-12-17T19:49:59.109Z,99834.32
2022-12-17T19:55:01.987Z,99837.83
2022-12-17T20:00:04.227Z,99850.23
2022-12-17T20:05:14.657Z,99859.33
2022-12-17T20:10:16.511Z,99867.59
2022-12-17T20:15:18.396Z,99876.55
2022-12-17T20:20:20.189Z,99874.30
2022-12-17T20:25:21.984Z,99878.69
2022-12-17T20:30:23.803Z,99881.13
2022-12-17T20:35:27.077Z,99882.86
2022-12-17T20:40:28.931Z,99894.50
2022-12-17T20:45:30.873Z,99900.73
2022-12-17T20:50:32.820Z,99901.73
2022-12-17T20:55:34.753Z,99904.08
2022-12-17T21:00:36.806Z,99905.55
2022-12-17T21:05:40.218Z,99914.58
2022-12-17T21:10:42.000Z,99924.70
2022-12-17T21:15:49.654Z,99929.48
2022-12-17T21:21:02.698Z,99934.97
2022-12-17T21:26:13.752Z,99951.13
2022-12-17T21:31:17.188Z,99955.92
2022-12-17T21:36:21.403Z,99964.30
2022-12-17T21:41:27.245Z,99973.37
2022-12-17T21:46:29.733Z,99984.56
2022-12-17T21:51:32.373Z,99991.52
2022-12-17T21:56:34.352Z,99991.00
2022-12-17T22:01:36.604Z,99996.90
2022-12-17T22:06:43.436Z,100003.02
2022-12-17T22:12:15.031Z,100004.36
2022-12-17T22:17:16.934Z,100007.00
2022-12-17T22:22:18.742Z,100008.11
2022-12-17T22:27:20.541Z,100015.27
2022-12-17T22:32:43.277Z,100015.02
2022-12-17T22:40:31.288Z,100016.00
2022-12-17T22:44:43.582Z,100022.98
2022-12-17T22:48:50.898Z,100032.65
2022-12-17T22:53:53.679Z,100037.31
2022-12-17T22:58:56.835Z,100039.91
2022-12-17T23:04:00.344Z,100046.37
2022-12-17T23:09:02.154Z,100048.67
2022-12-17T23:14:06.059Z,100062.20
2022-12-17T23:19:08.428Z,100068.30
2022-12-17T23:24:10.561Z,100071.31
2022-12-17T23:29:19.093Z,100076.73
2022-12-17T23:34:21.452Z,100076.16
2022-12-17T23:39:23.389Z,100079.85
2022-12-17T23:44:25.302Z,100088.19
2022-12-17T23:49:27.169Z,100094.27
2022-12-17T23:54:29.079Z,100103.90
2022-12-17T23:59:31.028Z,100105.19
